sensor_id;sensor_type;location;lat;lon;timestamp;temperature;humidity
65044;DHT22;51617;48.158;16.464;2023-05-10T00:01:55;13.40;87.00
65044;DHT22;51617;48.158;16.464;2023-05-10T00:04:21;13.40;87.20
65044;DHT22;51617;48.158;16.464;2023-05-10T00:06:46;13.40;87.40
65044;DHT22;51617;48.158;16.464;2023-05-10T00:09:13;13.30;87.60
65044;DHT22;51617;48.158;16.464;2023-05-10T00:11:39;13.30;88.00
65044;DHT22;51617;48.158;16.464;2023-05-10T00:14:04;13.20;88.40
65044;DHT22;51617;48.158;16.464;2023-05-10T00:16:30;13.20;88.60
65044;DHT22;51617;48.158;16.464;2023-05-10T00:18:56;13.10;88.80
65044;DHT22;51617;48.158;16.464;2023-05-10T00:21:21;13.20;88.80
65044;DHT22;51617;48.158;16.464;2023-05-10T00:23:47;13.20;88.90
65044;DHT22;51617;48.158;16.464;2023-05-10T00:26:13;13.20;89.00
65044;DHT22;51617;48.158;16.464;2023-05-10T00:28:38;13.10;88.90
65044;DHT22;51617;48.158;16.464;2023-05-10T00:31:04;13.20;89.10
65044;DHT22;51617;48.158;16.464;2023-05-10T00:33:29;13.10;89.00
65044;DHT22;51617;48.158;16.464;2023-05-10T00:35:55;13.20;89.30
65044;DHT22;51617;48.158;16.464;2023-05-10T00:38:21;13.10;89.30
65044;DHT22;51617;48.158;16.464;2023-05-10T00:40:47;13.10;90.00
65044;DHT22;51617;48.158;16.464;2023-05-10T00:43:12;13.10;89.30
65044;DHT22;51617;48.158;16.464;2023-05-10T00:45:40;13.10;89.50
65044;DHT22;51617;48.158;16.464;2023-05-10T00:48:05;13.10;89.50
65044;DHT22;51617;48.158;16.464;2023-05-10T00:50:32;13.10;89.60
65044;DHT22;51617;48.158;16.464;2023-05-10T00:52:59;13.10;89.70
65044;DHT22;51617;48.158;16.464;2023-05-10T00:55:26;13.00;90.00
65044;DHT22;51617;48.158;16.464;2023-05-10T00:57:53;13.00;90.00
65044;DHT22;51617;48.158;16.464;2023-05-10T01:00:19;13.00;90.10
65044;DHT22;51617;48.158;16.464;2023-05-10T01:02:45;12.90;90.20
65044;DHT22;51617;48.158;16.464;2023-05-10T01:05:12;12.90;90.70
65044;DHT22;51617;48.158;16.464;2023-05-10T01:07:38;12.80;90.50
65044;DHT22;51617;48.158;16.464;2023-05-10T01:10:05;12.90;90.60
65044;DHT22;51617;48.158;16.464;2023-05-10T01:12:31;12.80;90.60
65044;DHT22;51617;48.158;16.464;2023-05-10T01:14:57;12.80;90.60
65044;DHT22;51617;48.158;16.464;2023-05-10T01:17:24;12.80;90.60
65044;DHT22;51617;48.158;16.464;2023-05-10T01:19:50;12.80;90.70
65044;DHT22;51617;48.158;16.464;2023-05-10T01:22:50;12.80;90.80
65044;DHT22;51617;48.158;16.464;2023-05-10T01:33:35;12.70;91.10
65044;DHT22;51617;48.158;16.464;2023-05-10T01:36:16;12.60;91.30
65044;DHT22;51617;48.158;16.464;2023-05-10T01:38:51;12.70;91.60
65044;DHT22;51617;48.158;16.464;2023-05-10T01:41:54;12.60;91.40
65044;DHT22;51617;48.158;16.464;2023-05-10T01:44:53;12.60;91.50
65044;DHT22;51617;48.158;16.464;2023-05-10T01:49:55;12.50;91.70
65044;DHT22;51617;48.158;16.464;2023-05-10T01:52:32;12.50;91.90
65044;DHT22;51617;48.158;16.464;2023-05-10T01:55:19;12.50;92.10
65044;DHT22;51617;48.158;16.464;2023-05-10T01:57:47;12.50;92.20
65044;DHT22;51617;48.158;16.464;2023-05-10T02:00:14;12.40;92.30
65044;DHT22;51617;48.158;16.464;2023-05-10T02:02:44;12.40;92.30
65044;DHT22;51617;48.158;16.464;2023-05-10T02:05:12;12.40;92.40
65044;DHT22;51617;48.158;16.464;2023-05-10T02:07:39;12.40;92.60
65044;DHT22;51617;48.158;16.464;2023-05-10T02:10:06;12.40;92.70
65044;DHT22;51617;48.158;16.464;2023-05-10T02:12:36;12.40;92.80
65044;DHT22;51617;48.158;16.464;2023-05-10T02:15:04;12.40;92.90
65044;DHT22;51617;48.158;16.464;2023-05-10T02:17:31;12.30;92.90
65044;DHT22;51617;48.158;16.464;2023-05-10T02:19:59;12.40;93.10
65044;DHT22;51617;48.158;16.464;2023-05-10T02:22:27;12.40;93.10
65044;DHT22;51617;48.158;16.464;2023-05-10T02:24:55;12.40;93.10
65044;DHT22;51617;48.158;16.464;2023-05-10T02:27:24;12.40;93.20
65044;DHT22;51617;48.158;16.464;2023-05-10T02:29:51;12.40;93.20
65044;DHT22;51617;48.158;16.464;2023-05-10T02:32:17;12.40;93.20
65044;DHT22;51617;48.158;16.464;2023-05-10T02:34:44;12.30;93.40
65044;DHT22;51617;48.158;16.464;2023-05-10T02:37:14;12.30;93.50
65044;DHT22;51617;48.158;16.464;2023-05-10T02:39:40;12.30;93.70
65044;DHT22;51617;48.158;16.464;2023-05-10T02:42:16;12.30;93.70
65044;DHT22;51617;48.158;16.464;2023-05-10T02:44:42;12.20;93.80
65044;DHT22;51617;48.158;16.464;2023-05-10T02:47:08;12.20;94.10
65044;DHT22;51617;48.158;16.464;2023-05-10T02:49:34;12.20;94.10
65044;DHT22;51617;48.158;16.464;2023-05-10T02:52:01;12.10;94.10
65044;DHT22;51617;48.158;16.464;2023-05-10T02:54:33;12.10;94.20
65044;DHT22;51617;48.158;16.464;2023-05-10T02:57:01;12.10;94.40
65044;DHT22;51617;48.158;16.464;2023-05-10T02:59:29;12.00;94.50
65044;DHT22;51617;48.158;16.464;2023-05-10T03:01:55;12.00;94.60
65044;DHT22;51617;48.158;16.464;2023-05-10T03:04:20;11.90;94.80
65044;DHT22;51617;48.158;16.464;2023-05-10T03:06:46;11.90;94.90
65044;DHT22;51617;48.158;16.464;2023-05-10T03:09:12;11.90;95.00
65044;DHT22;51617;48.158;16.464;2023-05-10T03:12:06;11.80;95.10
65044;DHT22;51617;48.158;16.464;2023-05-10T03:20:06;11.70;95.50
65044;DHT22;51617;48.158;16.464;2023-05-10T03:22:38;11.60;95.70
65044;DHT22;51617;48.158;16.464;2023-05-10T03:25:08;11.60;95.70
65044;DHT22;51617;48.158;16.464;2023-05-10T03:27:37;11.70;95.70
65044;DHT22;51617;48.158;16.464;2023-05-10T03:30:05;11.60;95.80
65044;DHT22;51617;48.158;16.464;2023-05-10T03:32:33;11.60;96.10
65044;DHT22;51617;48.158;16.464;2023-05-10T03:35:00;11.60;96.00
65044;DHT22;51617;48.158;16.464;2023-05-10T03:37:25;11.60;96.00
65044;DHT22;51617;48.158;16.464;2023-05-10T03:39:51;11.60;96.10
65044;DHT22;51617;48.158;16.464;2023-05-10T03:42:16;11.60;96.20
65044;DHT22;51617;48.158;16.464;2023-05-10T03:44:43;11.60;96.20
65044;DHT22;51617;48.158;16.464;2023-05-10T03:47:08;11.60;96.30
65044;DHT22;51617;48.158;16.464;2023-05-10T03:49:34;11.60;96.20
65044;DHT22;51617;48.158;16.464;2023-05-10T03:52:00;11.60;96.20
65044;DHT22;51617;48.158;16.464;2023-05-10T03:54:25;11.60;96.60
65044;DHT22;51617;48.158;16.464;2023-05-10T03:56:51;11.60;96.30
65044;DHT22;51617;48.158;16.464;2023-05-10T03:59:17;11.70;96.20
65044;DHT22;51617;48.158;16.464;2023-05-10T04:01:42;11.70;96.30
65044;DHT22;51617;48.158;16.464;2023-05-10T04:04:08;11.60;96.40
65044;DHT22;51617;48.158;16.464;2023-05-10T04:06:33;11.70;96.40
65044;DHT22;51617;48.158;16.464;2023-05-10T04:08:59;11.70;96.30
65044;DHT22;51617;48.158;16.464;2023-05-10T04:11:27;11.70;96.30
65044;DHT22;51617;48.158;16.464;2023-05-10T04:13:53;11.80;96.30
65044;DHT22;51617;48.158;16.464;2023-05-10T04:16:18;11.70;96.50
65044;DHT22;51617;48.158;16.464;2023-05-10T04:18:44;11.80;96.40
65044;DHT22;51617;48.158;16.464;2023-05-10T04:21:12;11.80;96.30
65044;DHT22;51617;48.158;16.464;2023-05-10T04:23:41;11.80;96.30
65044;DHT22;51617;48.158;16.464;2023-05-10T04:26:07;11.90;96.10
65044;DHT22;51617;48.158;16.464;2023-05-10T04:28:32;12.00;96.10
65044;DHT22;51617;48.158;16.464;2023-05-10T04:31:06;12.10;96.00
65044;DHT22;51617;48.158;16.464;2023-05-10T04:33:32;12.10;95.90
65044;DHT22;51617;48.158;16.464;2023-05-10T04:35:58;12.20;95.90
65044;DHT22;51617;48.158;16.464;2023-05-10T04:38:24;12.20;95.80
65044;DHT22;51617;48.158;16.464;2023-05-10T04:40:50;12.30;95.70
65044;DHT22;51617;48.158;16.464;2023-05-10T04:43:16;12.30;95.60
65044;DHT22;51617;48.158;16.464;2023-05-10T04:45:41;12.40;95.60
65044;DHT22;51617;48.158;16.464;2023-05-10T04:48:07;12.40;95.60
65044;DHT22;51617;48.158;16.464;2023-05-10T04:50:33;12.50;95.40
65044;DHT22;51617;48.158;16.464;2023-05-10T04:52:58;12.50;95.40
65044;DHT22;51617;48.158;16.464;2023-05-10T04:55:24;12.60;95.30
65044;DHT22;51617;48.158;16.464;2023-05-10T04:57:50;12.60;95.20
65044;DHT22;51617;48.158;16.464;2023-05-10T05:00:16;12.70;95.10
65044;DHT22;51617;48.158;16.464;2023-05-10T05:02:43;12.80;94.90
65044;DHT22;51617;48.158;16.464;2023-05-10T05:05:12;12.90;94.80
65044;DHT22;51617;48.158;16.464;2023-05-10T05:07:38;13.00;94.50
65044;DHT22;51617;48.158;16.464;2023-05-10T05:10:08;13.10;94.40
65044;DHT22;51617;48.158;16.464;2023-05-10T05:12:34;13.20;94.10
65044;DHT22;51617;48.158;16.464;2023-05-10T05:15:00;13.30;93.90
65044;DHT22;51617;48.158;16.464;2023-05-10T05:17:25;13.30;93.70
65044;DHT22;51617;48.158;16.464;2023-05-10T05:19:51;13.50;93.60
65044;DHT22;51617;48.158;16.464;2023-05-10T05:22:17;13.60;93.40
65044;DHT22;51617;48.158;16.464;2023-05-10T05:24:44;13.70;93.30
65044;DHT22;51617;48.158;16.464;2023-05-10T05:27:10;13.80;93.10
65044;DHT22;51617;48.158;16.464;2023-05-10T05:29:36;13.90;92.90
65044;DHT22;51617;48.158;16.464;2023-05-10T05:32:01;14.10;92.80
65044;DHT22;51617;48.158;16.464;2023-05-10T05:34:27;14.20;92.70
65044;DHT22;51617;48.158;16.464;2023-05-10T05:36:53;14.30;92.60
65044;DHT22;51617;48.158;16.464;2023-05-10T05:39:19;14.50;92.50
65044;DHT22;51617;48.158;16.464;2023-05-10T05:41:44;14.60;92.40
65044;DHT22;51617;48.158;16.464;2023-05-10T05:44:11;14.70;92.30
65044;DHT22;51617;48.158;16.464;2023-05-10T05:46:37;14.70;92.40
65044;DHT22;51617;48.158;16.464;2023-05-10T05:49:02;14.90;92.00
65044;DHT22;51617;48.158;16.464;2023-05-10T05:51:28;15.00;92.00
65044;DHT22;51617;48.158;16.464;2023-05-10T05:53:54;15.00;92.00
65044;DHT22;51617;48.158;16.464;2023-05-10T05:56:19;15.10;91.80
65044;DHT22;51617;48.158;16.464;2023-05-10T05:58:50;15.20;91.90
65044;DHT22;51617;48.158;16.464;2023-05-10T06:01:16;15.30;91.80
65044;DHT22;51617;48.158;16.464;2023-05-10T06:03:42;15.40;91.60
65044;DHT22;51617;48.158;16.464;2023-05-10T06:06:07;15.50;91.30
65044;DHT22;51617;48.158;16.464;2023-05-10T06:08:33;15.60;91.10
65044;DHT22;51617;48.158;16.464;2023-05-10T06:10:59;15.70;90.90
65044;DHT22;51617;48.158;16.464;2023-05-10T06:13:25;15.80;90.80
65044;DHT22;51617;48.158;16.464;2023-05-10T06:16:00;15.90;90.70
65044;DHT22;51617;48.158;16.464;2023-05-10T06:18:25;16.00;90.70
65044;DHT22;51617;48.158;16.464;2023-05-10T06:20:51;16.10;90.60
65044;DHT22;51617;48.158;16.464;2023-05-10T06:23:17;16.10;90.50
65044;DHT22;51617;48.158;16.464;2023-05-10T06:25:43;16.20;90.30
65044;DHT22;51617;48.158;16.464;2023-05-10T06:28:08;16.30;90.30
65044;DHT22;51617;48.158;16.464;2023-05-10T06:30:36;16.30;90.20
65044;DHT22;51617;48.158;16.464;2023-05-10T06:33:02;16.30;90.10
65044;DHT22;51617;48.158;16.464;2023-05-10T06:35:28;16.40;89.70
65044;DHT22;51617;48.158;16.464;2023-05-10T06:37:54;16.50;88.80
65044;DHT22;51617;48.158;16.464;2023-05-10T06:40:20;16.50;87.90
65044;DHT22;51617;48.158;16.464;2023-05-10T06:42:47;16.60;87.70
65044;DHT22;51617;48.158;16.464;2023-05-10T06:45:14;16.70;87.70
65044;DHT22;51617;48.158;16.464;2023-05-10T06:47:40;16.70;87.90
65044;DHT22;51617;48.158;16.464;2023-05-10T06:50:09;16.70;88.30
65044;DHT22;51617;48.158;16.464;2023-05-10T06:52:37;16.70;88.30
65044;DHT22;51617;48.158;16.464;2023-05-10T06:55:03;16.80;88.20
65044;DHT22;51617;48.158;16.464;2023-05-10T06:57:30;16.90;88.00
65044;DHT22;51617;48.158;16.464;2023-05-10T06:59:55;17.00;88.00
65044;DHT22;51617;48.158;16.464;2023-05-10T07:02:22;17.10;88.10
65044;DHT22;51617;48.158;16.464;2023-05-10T07:04:48;17.10;87.80
65044;DHT22;51617;48.158;16.464;2023-05-10T07:07:14;17.20;87.90
65044;DHT22;51617;48.158;16.464;2023-05-10T07:09:40;17.20;88.00
65044;DHT22;51617;48.158;16.464;2023-05-10T07:12:05;17.30;88.20
65044;DHT22;51617;48.158;16.464;2023-05-10T07:14:31;17.40;87.80
65044;DHT22;51617;48.158;16.464;2023-05-10T07:16:57;17.50;86.90
65044;DHT22;51617;48.158;16.464;2023-05-10T07:19:22;17.50;85.60
65044;DHT22;51617;48.158;16.464;2023-05-10T07:21:48;17.60;85.60
65044;DHT22;51617;48.158;16.464;2023-05-10T07:24:14;17.70;85.40
65044;DHT22;51617;48.158;16.464;2023-05-10T07:26:39;17.70;84.50
65044;DHT22;51617;48.158;16.464;2023-05-10T07:29:05;17.70;85.30
65044;DHT22;51617;48.158;16.464;2023-05-10T07:31:31;17.70;85.80
65044;DHT22;51617;48.158;16.464;2023-05-10T07:33:56;17.80;86.20
65044;DHT22;51617;48.158;16.464;2023-05-10T07:36:22;17.90;86.20
65044;DHT22;51617;48.158;16.464;2023-05-10T07:38:47;17.90;86.20
65044;DHT22;51617;48.158;16.464;2023-05-10T07:41:14;18.00;85.60
65044;DHT22;51617;48.158;16.464;2023-05-10T07:43:40;18.10;86.40
65044;DHT22;51617;48.158;16.464;2023-05-10T07:46:06;18.10;86.20
65044;DHT22;51617;48.158;16.464;2023-05-10T07:48:31;18.10;86.60
65044;DHT22;51617;48.158;16.464;2023-05-10T07:50:57;18.10;86.60
65044;DHT22;51617;48.158;16.464;2023-05-10T07:53:23;18.20;86.90
65044;DHT22;51617;48.158;16.464;2023-05-10T07:55:54;18.20;86.10
65044;DHT22;51617;48.158;16.464;2023-05-10T07:58:22;18.30;86.70
65044;DHT22;51617;48.158;16.464;2023-05-10T08:00:47;18.30;86.30
65044;DHT22;51617;48.158;16.464;2023-05-10T08:03:14;18.40;84.10
65044;DHT22;51617;48.158;16.464;2023-05-10T08:05:40;18.40;83.80
65044;DHT22;51617;48.158;16.464;2023-05-10T08:08:06;18.40;84.20
65044;DHT22;51617;48.158;16.464;2023-05-10T08:10:32;18.50;85.20
65044;DHT22;51617;48.158;16.464;2023-05-10T08:12:57;18.50;83.80
65044;DHT22;51617;48.158;16.464;2023-05-10T08:15:24;18.60;83.70
65044;DHT22;51617;48.158;16.464;2023-05-10T08:17:51;18.60;84.40
65044;DHT22;51617;48.158;16.464;2023-05-10T08:20:17;18.70;84.90
65044;DHT22;51617;48.158;16.464;2023-05-10T08:22:45;18.80;85.00
65044;DHT22;51617;48.158;16.464;2023-05-10T08:25:11;18.90;84.80
65044;DHT22;51617;48.158;16.464;2023-05-10T08:27:36;18.80;84.30
65044;DHT22;51617;48.158;16.464;2023-05-10T08:30:02;18.90;83.60
65044;DHT22;51617;48.158;16.464;2023-05-10T08:32:28;18.90;83.90
65044;DHT22;51617;48.158;16.464;2023-05-10T08:34:53;18.90;82.40
65044;DHT22;51617;48.158;16.464;2023-05-10T08:37:19;18.90;82.40
65044;DHT22;51617;48.158;16.464;2023-05-10T08:39:45;19.00;81.40
65044;DHT22;51617;48.158;16.464;2023-05-10T08:42:16;19.00;80.50
65044;DHT22;51617;48.158;16.464;2023-05-10T08:44:45;19.10;80.90
65044;DHT22;51617;48.158;16.464;2023-05-10T08:47:15;19.20;80.80
65044;DHT22;51617;48.158;16.464;2023-05-10T08:49:41;19.30;80.80
65044;DHT22;51617;48.158;16.464;2023-05-10T08:52:08;19.40;79.60
65044;DHT22;51617;48.158;16.464;2023-05-10T08:54:36;19.40;80.30
65044;DHT22;51617;48.158;16.464;2023-05-10T08:57:02;19.40;80.20
65044;DHT22;51617;48.158;16.464;2023-05-10T08:59:28;19.60;79.90
65044;DHT22;51617;48.158;16.464;2023-05-10T09:01:57;19.60;79.60
65044;DHT22;51617;48.158;16.464;2023-05-10T09:04:23;19.70;79.10
65044;DHT22;51617;48.158;16.464;2023-05-10T09:06:48;19.90;78.90
65044;DHT22;51617;48.158;16.464;2023-05-10T09:09:15;20.00;77.70
65044;DHT22;51617;48.158;16.464;2023-05-10T09:11:41;20.00;76.70
65044;DHT22;51617;48.158;16.464;2023-05-10T09:14:07;19.90;76.80
65044;DHT22;51617;48.158;16.464;2023-05-10T09:16:34;19.90;77.20
65044;DHT22;51617;48.158;16.464;2023-05-10T09:19:00;20.10;76.70
65044;DHT22;51617;48.158;16.464;2023-05-10T09:21:26;20.30;76.90
65044;DHT22;51617;48.158;16.464;2023-05-10T09:23:51;20.40;76.90
65044;DHT22;51617;48.158;16.464;2023-05-10T09:26:25;20.60;76.10
65044;DHT22;51617;48.158;16.464;2023-05-10T09:31:17;21.00;75.10
65044;DHT22;51617;48.158;16.464;2023-05-10T09:33:50;21.20;74.60
65044;DHT22;51617;48.158;16.464;2023-05-10T09:36:16;21.40;74.20
65044;DHT22;51617;48.158;16.464;2023-05-10T09:38:50;21.50;73.60
65044;DHT22;51617;48.158;16.464;2023-05-10T09:41:22;21.60;72.90
65044;DHT22;51617;48.158;16.464;2023-05-10T09:43:48;21.60;72.40
65044;DHT22;51617;48.158;16.464;2023-05-10T09:46:15;21.50;72.80
65044;DHT22;51617;48.158;16.464;2023-05-10T09:48:43;21.30;72.70
65044;DHT22;51617;48.158;16.464;2023-05-10T09:51:09;21.20;72.60
65044;DHT22;51617;48.158;16.464;2023-05-10T09:53:35;21.30;73.40
65044;DHT22;51617;48.158;16.464;2023-05-10T09:56:01;21.30;69.40
65044;DHT22;51617;48.158;16.464;2023-05-10T09:58:26;21.40;70.30
65044;DHT22;51617;48.158;16.464;2023-05-10T10:00:52;21.50;70.10
65044;DHT22;51617;48.158;16.464;2023-05-10T10:03:20;21.50;70.20
65044;DHT22;51617;48.158;16.464;2023-05-10T10:05:47;21.50;70.00
65044;DHT22;51617;48.158;16.464;2023-05-10T10:08:13;21.60;70.40
65044;DHT22;51617;48.158;16.464;2023-05-10T10:10:40;21.60;70.30
65044;DHT22;51617;48.158;16.464;2023-05-10T10:13:06;21.70;69.80
65044;DHT22;51617;48.158;16.464;2023-05-10T10:15:33;21.60;69.70
65044;DHT22;51617;48.158;16.464;2023-05-10T10:18:00;21.60;69.30
65044;DHT22;51617;48.158;16.464;2023-05-10T10:20:26;21.60;68.90
65044;DHT22;51617;48.158;16.464;2023-05-10T10:22:52;21.80;68.70
65044;DHT22;51617;48.158;16.464;2023-05-10T10:25:20;21.80;69.30
65044;DHT22;51617;48.158;16.464;2023-05-10T10:35:25;21.90;68.10
65044;DHT22;51617;48.158;16.464;2023-05-10T10:37:51;21.90;67.10
65044;DHT22;51617;48.158;16.464;2023-05-10T10:40:27;22.00;66.20
65044;DHT22;51617;48.158;16.464;2023-05-10T10:42:54;21.90;65.50
65044;DHT22;51617;48.158;16.464;2023-05-10T10:45:21;21.90;66.40
65044;DHT22;51617;48.158;16.464;2023-05-10T10:47:47;22.10;66.70
65044;DHT22;51617;48.158;16.464;2023-05-10T10:50:13;22.20;68.30
65044;DHT22;51617;48.158;16.464;2023-05-10T10:52:39;22.30;67.10
65044;DHT22;51617;48.158;16.464;2023-05-10T10:55:14;22.20;66.90
65044;DHT22;51617;48.158;16.464;2023-05-10T11:02:53;22.20;66.60
65044;DHT22;51617;48.158;16.464;2023-05-10T11:07:56;22.30;66.20
65044;DHT22;51617;48.158;16.464;2023-05-10T11:10:22;22.30;66.10
65044;DHT22;51617;48.158;16.464;2023-05-10T11:13:05;22.50;66.70
65044;DHT22;51617;48.158;16.464;2023-05-10T11:17:57;22.50;65.80
65044;DHT22;51617;48.158;16.464;2023-05-10T11:20:23;22.60;65.00
65044;DHT22;51617;48.158;16.464;2023-05-10T11:22:59;22.70;64.70
65044;DHT22;51617;48.158;16.464;2023-05-10T11:25:44;22.80;64.90
65044;DHT22;51617;48.158;16.464;2023-05-10T11:28:10;22.80;64.10
65044;DHT22;51617;48.158;16.464;2023-05-10T11:30:38;22.80;63.70
65044;DHT22;51617;48.158;16.464;2023-05-10T11:33:06;22.90;64.10
65044;DHT22;51617;48.158;16.464;2023-05-10T11:35:37;22.90;64.20
65044;DHT22;51617;48.158;16.464;2023-05-10T11:38:09;22.90;63.60
65044;DHT22;51617;48.158;16.464;2023-05-10T11:40:35;22.80;64.70
65044;DHT22;51617;48.158;16.464;2023-05-10T11:43:02;22.80;63.70
65044;DHT22;51617;48.158;16.464;2023-05-10T11:45:29;22.70;63.50
65044;DHT22;51617;48.158;16.464;2023-05-10T11:47:58;22.70;63.90
65044;DHT22;51617;48.158;16.464;2023-05-10T11:50:24;22.70;63.40
65044;DHT22;51617;48.158;16.464;2023-05-10T11:52:55;22.50;63.60
65044;DHT22;51617;48.158;16.464;2023-05-10T11:55:21;22.60;62.90
65044;DHT22;51617;48.158;16.464;2023-05-10T11:57:51;22.90;63.60
65044;DHT22;51617;48.158;16.464;2023-05-10T12:00:16;23.10;62.80
65044;DHT22;51617;48.158;16.464;2023-05-10T12:02:42;23.10;62.90
65044;DHT22;51617;48.158;16.464;2023-05-10T12:05:08;23.20;62.40
65044;DHT22;51617;48.158;16.464;2023-05-10T12:07:35;23.20;61.40
65044;DHT22;51617;48.158;16.464;2023-05-10T12:10:09;23.20;61.50
65044;DHT22;51617;48.158;16.464;2023-05-10T12:15:05;23.20;61.40
65044;DHT22;51617;48.158;16.464;2023-05-10T12:17:32;23.20;61.20
65044;DHT22;51617;48.158;16.464;2023-05-10T12:20:14;23.40;61.10
65044;DHT22;51617;48.158;16.464;2023-05-10T12:22:40;23.30;61.70
65044;DHT22;51617;48.158;16.464;2023-05-10T12:25:07;23.40;61.00
65044;DHT22;51617;48.158;16.464;2023-05-10T12:27:33;23.50;60.20
65044;DHT22;51617;48.158;16.464;2023-05-10T12:29:59;23.50;60.60
65044;DHT22;51617;48.158;16.464;2023-05-10T12:32:41;23.40;59.90
65044;DHT22;51617;48.158;16.464;2023-05-10T12:35:07;23.40;59.80
65044;DHT22;51617;48.158;16.464;2023-05-10T12:37:33;23.30;60.90
65044;DHT22;51617;48.158;16.464;2023-05-10T12:40:06;23.40;61.40
65044;DHT22;51617;48.158;16.464;2023-05-10T12:42:32;23.50;61.40
65044;DHT22;51617;48.158;16.464;2023-05-10T12:44:57;23.70;60.40
65044;DHT22;51617;48.158;16.464;2023-05-10T12:47:23;23.70;60.30
65044;DHT22;51617;48.158;16.464;2023-05-10T12:49:49;23.80;59.90
65044;DHT22;51617;48.158;16.464;2023-05-10T12:52:14;23.70;60.10
65044;DHT22;51617;48.158;16.464;2023-05-10T12:54:40;23.80;60.50
65044;DHT22;51617;48.158;16.464;2023-05-10T12:57:05;23.90;60.20
65044;DHT22;51617;48.158;16.464;2023-05-10T12:59:31;23.90;59.60
65044;DHT22;51617;48.158;16.464;2023-05-10T13:01:57;23.80;59.60
65044;DHT22;51617;48.158;16.464;2023-05-10T13:04:23;23.70;60.40
65044;DHT22;51617;48.158;16.464;2023-05-10T13:06:48;23.60;60.90
65044;DHT22;51617;48.158;16.464;2023-05-10T13:09:14;23.40;60.50
65044;DHT22;51617;48.158;16.464;2023-05-10T13:11:40;23.50;60.70
65044;DHT22;51617;48.158;16.464;2023-05-10T13:14:06;23.50;60.40
65044;DHT22;51617;48.158;16.464;2023-05-10T13:16:32;23.50;60.90
65044;DHT22;51617;48.158;16.464;2023-05-10T13:18:58;23.60;60.90
65044;DHT22;51617;48.158;16.464;2023-05-10T13:21:24;23.90;60.60
65044;DHT22;51617;48.158;16.464;2023-05-10T13:23:50;23.90;60.30
65044;DHT22;51617;48.158;16.464;2023-05-10T13:26:16;24.00;60.70
65044;DHT22;51617;48.158;16.464;2023-05-10T13:28:43;24.20;60.30
65044;DHT22;51617;48.158;16.464;2023-05-10T13:31:08;24.30;59.50
65044;DHT22;51617;48.158;16.464;2023-05-10T13:33:34;24.30;58.40
65044;DHT22;51617;48.158;16.464;2023-05-10T13:35:59;24.10;57.80
65044;DHT22;51617;48.158;16.464;2023-05-10T13:38:25;24.00;57.80
65044;DHT22;51617;48.158;16.464;2023-05-10T13:40:51;24.10;57.40
65044;DHT22;51617;48.158;16.464;2023-05-10T13:43:18;24.10;57.70
65044;DHT22;51617;48.158;16.464;2023-05-10T13:45:44;24.40;56.20
65044;DHT22;51617;48.158;16.464;2023-05-10T13:48:09;24.40;56.30
65044;DHT22;51617;48.158;16.464;2023-05-10T13:50:35;24.40;56.00
65044;DHT22;51617;48.158;16.464;2023-05-10T13:53:01;24.30;55.90
65044;DHT22;51617;48.158;16.464;2023-05-10T13:55:26;24.40;56.50
65044;DHT22;51617;48.158;16.464;2023-05-10T13:57:52;24.50;57.00
65044;DHT22;51617;48.158;16.464;2023-05-10T14:00:18;24.70;55.30
65044;DHT22;51617;48.158;16.464;2023-05-10T14:02:43;24.90;55.60
65044;DHT22;51617;48.158;16.464;2023-05-10T14:05:09;25.10;54.80
65044;DHT22;51617;48.158;16.464;2023-05-10T14:07:35;25.30;55.50
65044;DHT22;51617;48.158;16.464;2023-05-10T14:10:01;25.50;54.10
65044;DHT22;51617;48.158;16.464;2023-05-10T14:12:27;25.70;53.00
65044;DHT22;51617;48.158;16.464;2023-05-10T14:14:52;25.60;52.70
65044;DHT22;51617;48.158;16.464;2023-05-10T14:17:18;25.60;52.40
65044;DHT22;51617;48.158;16.464;2023-05-10T14:19:44;25.60;53.40
65044;DHT22;51617;48.158;16.464;2023-05-10T14:22:10;25.70;52.80
65044;DHT22;51617;48.158;16.464;2023-05-10T14:24:35;26.00;53.20
65044;DHT22;51617;48.158;16.464;2023-05-10T14:27:01;26.10;52.70
65044;DHT22;51617;48.158;16.464;2023-05-10T14:29:27;26.20;52.40
65044;DHT22;51617;48.158;16.464;2023-05-10T14:31:52;26.20;50.70
65044;DHT22;51617;48.158;16.464;2023-05-10T14:34:18;26.10;51.80
65044;DHT22;51617;48.158;16.464;2023-05-10T14:36:44;25.90;51.70
65044;DHT22;51617;48.158;16.464;2023-05-10T14:39:09;25.80;52.20
65044;DHT22;51617;48.158;16.464;2023-05-10T14:41:38;25.80;52.20
65044;DHT22;51617;48.158;16.464;2023-05-10T14:44:06;25.90;51.40
65044;DHT22;51617;48.158;16.464;2023-05-10T14:46:31;25.60;51.40
65044;DHT22;51617;48.158;16.464;2023-05-10T14:48:57;25.30;51.20
65044;DHT22;51617;48.158;16.464;2023-05-10T14:51:23;25.10;51.50
65044;DHT22;51617;48.158;16.464;2023-05-10T14:53:48;24.90;51.50
65044;DHT22;51617;48.158;16.464;2023-05-10T14:56:17;24.80;52.10
65044;DHT22;51617;48.158;16.464;2023-05-10T14:58:42;24.70;52.80
65044;DHT22;51617;48.158;16.464;2023-05-10T15:01:08;24.50;53.60
65044;DHT22;51617;48.158;16.464;2023-05-10T15:03:34;24.40;53.90
65044;DHT22;51617;48.158;16.464;2023-05-10T15:05:59;24.40;53.40
65044;DHT22;51617;48.158;16.464;2023-05-10T15:08:25;24.20;52.70
65044;DHT22;51617;48.158;16.464;2023-05-10T15:10:51;24.70;52.70
65044;DHT22;51617;48.158;16.464;2023-05-10T15:13:17;25.20;51.60
65044;DHT22;51617;48.158;16.464;2023-05-10T15:15:42;25.60;50.90
65044;DHT22;51617;48.158;16.464;2023-05-10T15:18:09;25.60;50.30
65044;DHT22;51617;48.158;16.464;2023-05-10T15:20:35;25.50;50.70
65044;DHT22;51617;48.158;16.464;2023-05-10T15:23:01;26.40;51.40
65044;DHT22;51617;48.158;16.464;2023-05-10T15:25:26;27.20;49.90
65044;DHT22;51617;48.158;16.464;2023-05-10T15:27:53;27.50;49.30
65044;DHT22;51617;48.158;16.464;2023-05-10T15:30:18;28.00;49.10
65044;DHT22;51617;48.158;16.464;2023-05-10T15:32:44;27.80;48.50
65044;DHT22;51617;48.158;16.464;2023-05-10T15:35:10;27.10;49.50
65044;DHT22;51617;48.158;16.464;2023-05-10T15:37:36;26.60;49.80
65044;DHT22;51617;48.158;16.464;2023-05-10T15:40:02;25.90;50.50
65044;DHT22;51617;48.158;16.464;2023-05-10T15:42:32;25.70;51.00
65044;DHT22;51617;48.158;16.464;2023-05-10T15:44:58;25.40;51.00
65044;DHT22;51617;48.158;16.464;2023-05-10T15:47:25;25.10;51.60
65044;DHT22;51617;48.158;16.464;2023-05-10T15:49:51;24.70;52.20
65044;DHT22;51617;48.158;16.464;2023-05-10T15:52:16;24.40;52.70
65044;DHT22;51617;48.158;16.464;2023-05-10T15:54:43;24.10;53.40